createdAt,value
2022-08-10T00:01:55.558Z,18.60
2022-08-10T00:04:26.423Z,18.60
2022-08-10T00:06:59.201Z,18.60
2022-08-10T00:09:28.277Z,18.60
2022-08-10T00:11:57.368Z,18.50
2022-08-10T00:14:26.494Z,18.60
2022-08-10T00:16:55.645Z,18.60
2022-08-10T00:19:28.594Z,18.60
2022-08-10T00:22:17.705Z,18.60
2022-08-10T00:24:46.858Z,18.60
2022-08-10T00:27:57.933Z,18.50
2022-08-10T00:30:05.963Z,18.50
2022-08-10T00:32:35.183Z,18.60
2022-08-10T00:35:06.669Z,18.50
2022-08-10T00:37:37.748Z,18.50
2022-08-10T00:40:08.225Z,18.50
2022-08-10T00:42:37.408Z,18.50
2022-08-10T00:45:07.511Z,18.50
2022-08-10T00:47:37.854Z,18.50
2022-08-10T00:50:10.092Z,18.40
2022-08-10T00:52:40.351Z,18.50
2022-08-10T00:55:09.934Z,18.50
2022-08-10T00:57:40.647Z,18.40
2022-08-10T01:00:10.977Z,18.40
2022-08-10T01:02:40.728Z,18.40
2022-08-10T01:05:14.503Z,18.40
2022-08-10T01:08:04.284Z,18.40
2022-08-10T01:10:42.809Z,18.40
2022-08-10T01:13:17.972Z,18.40
2022-08-10T01:15:55.482Z,18.40
2022-08-10T01:18:37.811Z,18.40
2022-08-10T01:21:35.403Z,18.30
2022-08-10T01:24:17.912Z,18.30
2022-08-10T01:27:14.606Z,18.30
2022-08-10T01:30:07.988Z,18.30
2022-08-10T01:32:48.946Z,18.30
2022-08-10T01:35:25.803Z,18.30
2022-08-10T01:38:03.611Z,18.40
2022-08-10T01:40:36.434Z,18.30
2022-08-10T01:43:09.907Z,18.40
2022-08-10T01:45:46.299Z,18.40
2022-08-10T01:48:31.409Z,18.40
2022-08-10T01:51:10.387Z,18.30
2022-08-10T01:53:44.220Z,18.30
2022-08-10T01:56:16.614Z,18.30
2022-08-10T01:58:48.849Z,18.30
2022-08-10T02:01:24.470Z,18.30
2022-08-10T02:04:03.979Z,18.20
2022-08-10T02:06:36.903Z,18.20
2022-08-10T02:09:09.068Z,18.20
2022-08-10T02:12:06.435Z,18.20
2022-08-10T02:14:34.645Z,18.20
2022-08-10T02:17:08.939Z,18.20
2022-08-10T02:20:03.299Z,18.10
2022-08-10T02:22:36.027Z,18.10
2022-08-10T02:25:09.650Z,18.00
2022-08-10T02:27:59.403Z,18.00
2022-08-10T02:30:30.270Z,18.00
2022-08-10T02:33:02.666Z,18.00
2022-08-10T02:35:40.552Z,17.90
2022-08-10T02:38:58.299Z,17.90
2022-08-10T02:45:13.076Z,17.90
2022-08-10T02:45:21.692Z,17.90
2022-08-10T02:47:18.793Z,17.80
2022-08-10T02:49:55.869Z,17.80
2022-08-10T02:52:30.571Z,17.80
2022-08-10T02:55:17.224Z,17.80
2022-08-10T02:58:16.615Z,17.80
2022-08-10T03:00:46.635Z,17.70
2022-08-10T03:03:21.514Z,17.70
2022-08-10T03:05:56.696Z,17.70
2022-08-10T03:08:29.764Z,17.70
2022-08-10T03:11:03.370Z,17.70
2022-08-10T03:13:34.912Z,17.60
2022-08-10T03:16:06.250Z,17.60
2022-08-10T03:18:36.333Z,17.60
2022-08-10T03:21:11.819Z,17.50
2022-08-10T03:23:44.128Z,17.50
2022-08-10T03:26:20.321Z,17.50
2022-08-10T03:28:50.123Z,17.40
2022-08-10T03:31:19.806Z,17.40
2022-08-10T03:33:49.412Z,17.40
2022-08-10T03:36:43.573Z,17.40
2022-08-10T03:39:09.340Z,17.40
2022-08-10T03:41:41.807Z,17.30
2022-08-10T03:44:26.243Z,17.30
2022-08-10T03:46:56.488Z,17.30
2022-08-10T03:49:28.129Z,17.30
2022-08-10T03:51:59.778Z,17.30
2022-08-10T03:54:29.342Z,17.30
2022-08-10T03:56:58.557Z,17.30
2022-08-10T03:59:28.131Z,17.30
2022-08-10T04:02:44.495Z,17.20
2022-08-10T04:04:49.327Z,17.20
2022-08-10T04:07:20.267Z,17.20
2022-08-10T04:09:55.047Z,17.20
2022-08-10T04:12:24.914Z,17.20
2022-08-10T04:14:54.140Z,17.20
2022-08-10T04:18:04.194Z,17.10
2022-08-10T04:20:19.775Z,17.10
2022-08-10T04:22:54.633Z,17.10
2022-08-10T04:25:25.318Z,17.10
2022-08-10T04:27:55.397Z,17.00
2022-08-10T04:30:27.832Z,17.00
2022-08-10T04:32:59.855Z,17.00
2022-08-10T04:35:30.322Z,17.00
2022-08-10T04:38:03.333Z,17.00
2022-08-10T04:40:32.592Z,17.10
2022-08-10T04:43:08.943Z,17.10
2022-08-10T04:45:49.796Z,17.00
2022-08-10T04:48:40.414Z,17.00
2022-08-10T04:51:18.320Z,17.00
2022-08-10T04:54:06.168Z,17.00
2022-08-10T04:56:37.475Z,17.00
2022-08-10T04:59:07.620Z,17.10
2022-08-10T05:01:37.744Z,17.10
2022-08-10T05:04:36.093Z,17.10
2022-08-10T05:07:16.323Z,17.10
2022-08-10T05:10:02.867Z,17.10
2022-08-10T05:12:36.382Z,17.10
2022-08-10T05:15:08.498Z,17.20
2022-08-10T05:17:38.322Z,17.20
2022-08-10T05:20:09.570Z,17.20
2022-08-10T05:22:41.785Z,17.20
2022-08-10T05:25:14.246Z,17.20
2022-08-10T05:27:44.761Z,17.20
2022-08-10T05:30:17.014Z,17.30
2022-08-10T05:32:56.209Z,17.30
2022-08-10T05:35:55.105Z,17.30
2022-08-10T05:38:21.545Z,17.30
2022-08-10T05:40:52.229Z,17.40
2022-08-10T05:43:23.019Z,17.40
2022-08-10T05:46:16.757Z,17.40
2022-08-10T05:48:59.297Z,17.50
2022-08-10T05:51:31.139Z,17.60
2022-08-10T05:54:05.956Z,17.70
2022-08-10T05:56:54.191Z,17.80
2022-08-10T06:00:11.102Z,17.90
2022-08-10T06:02:31.235Z,18.10
2022-08-10T06:05:06.330Z,18.20
2022-08-10T06:07:39.071Z,18.40
2022-08-10T06:10:12.788Z,18.50
2022-08-10T06:12:55.630Z,18.70
2022-08-10T06:15:45.638Z,18.80
2022-08-10T06:18:16.266Z,18.90
2022-08-10T06:20:47.662Z,19.10
2022-08-10T06:23:16.885Z,19.20
2022-08-10T06:26:11.037Z,19.40
2022-08-10T06:28:39.273Z,19.50
2022-08-10T06:31:10.602Z,19.60
2022-08-10T06:33:40.470Z,19.70
2022-08-10T06:36:10.693Z,19.80
2022-08-10T06:38:41.888Z,19.90
2022-08-10T06:41:19.991Z,19.90
2022-08-10T06:43:57.994Z,20.10
2022-08-10T06:46:29.534Z,20.20
2022-08-10T06:49:02.638Z,20.30
2022-08-10T06:51:35.501Z,20.30
2022-08-10T06:54:07.725Z,20.40
2022-08-10T06:56:50.924Z,20.40
2022-08-10T06:59:41.721Z,20.40
2022-08-10T07:02:14.228Z,20.60
2022-08-10T07:04:47.779Z,20.60
2022-08-10T07:07:21.620Z,20.70
2022-08-10T07:09:52.916Z,20.80
2022-08-10T07:12:25.485Z,20.90
2022-08-10T07:14:58.239Z,21.00
2022-08-10T07:17:28.894Z,21.00
2022-08-10T07:20:00.594Z,21.10
2022-08-10T07:23:50.818Z,21.20
2022-08-10T07:25:25.285Z,21.20
2022-08-10T07:27:58.545Z,21.30
2022-08-10T07:30:35.120Z,21.40
2022-08-10T07:33:05.933Z,21.50
2022-08-10T07:35:42.868Z,21.60
2022-08-10T07:38:22.207Z,21.70
2022-08-10T07:40:54.372Z,21.80
2022-08-10T07:43:24.502Z,21.90
2022-08-10T07:45:59.017Z,22.00
2022-08-10T07:48:31.191Z,22.20
2022-08-10T07:51:02.915Z,22.30
2022-08-10T07:53:34.973Z,22.40
2022-08-10T07:56:17.000Z,22.50
2022-08-10T07:58:58.946Z,22.70
2022-08-10T08:01:33.734Z,22.80
2022-08-10T08:04:05.436Z,22.80
2022-08-10T08:06:41.952Z,22.90
2022-08-10T08:09:12.031Z,23.00
2022-08-10T08:11:44.505Z,23.10
2022-08-10T08:14:15.909Z,23.20
2022-08-10T08:16:47.649Z,23.30
2022-08-10T08:19:38.047Z,23.40
2022-08-10T08:24:07.518Z,23.60
2022-08-10T08:24:59.230Z,23.80
2022-08-10T08:27:29.673Z,23.80
2022-08-10T08:29:59.556Z,23.90
2022-08-10T08:32:32.915Z,24.00
2022-08-10T08:35:06.524Z,24.00
2022-08-10T08:38:29.954Z,24.00
2022-08-10T08:40:30.379Z,24.00
2022-08-10T08:43:25.494Z,24.00
2022-08-10T08:46:28.634Z,24.00
2022-08-10T08:50:07.536Z,23.90
2022-08-10T08:52:36.561Z,24.00
2022-08-10T08:56:03.884Z,24.00
2022-08-10T08:58:21.623Z,24.00
2022-08-10T09:00:58.992Z,24.00
2022-08-10T09:04:05.917Z,24.10
2022-08-10T09:07:39.275Z,24.10
2022-08-10T09:10:04.568Z,24.10
2022-08-10T09:12:44.877Z,24.10
2022-08-10T09:15:41.068Z,24.20
2022-08-10T09:18:19.196Z,24.30
2022-08-10T09:20:52.458Z,24.40
2022-08-10T09:24:01.694Z,24.50
2022-08-10T09:26:22.628Z,24.60
2022-08-10T09:29:11.750Z,24.70
2022-08-10T09:31:55.853Z,24.80
2022-08-10T09:36:26.172Z,24.80
2022-08-10T09:38:02.721Z,24.70
2022-08-10T09:40:58.963Z,24.60
2022-08-10T09:43:48.570Z,24.70
2022-08-10T09:46:27.658Z,24.70
2022-08-10T09:49:06.698Z,24.60
2022-08-10T09:51:47.064Z,24.60
2022-08-10T09:54:31.478Z,24.60
2022-08-10T09:57:41.523Z,24.60
2022-08-10T10:00:08.935Z,24.70
2022-08-10T10:02:47.355Z,24.80
2022-08-10T10:05:28.444Z,24.90
2022-08-10T10:08:08.579Z,25.00
2022-08-10T10:10:47.529Z,24.90
2022-08-10T10:13:41.613Z,24.80
2022-08-10T10:16:29.950Z,24.80
2022-08-10T10:19:09.199Z,24.80
2022-08-10T10:21:55.047Z,24.70
2022-08-10T10:24:34.481Z,24.50
2022-08-10T10:27:16.487Z,24.50
2022-08-10T10:29:59.294Z,24.50
2022-08-10T10:32:42.681Z,24.40
2022-08-10T10:35:21.993Z,24.20
2022-08-10T10:38:01.276Z,24.20
2022-08-10T10:40:39.943Z,24.20
2022-08-10T10:43:22.406Z,24.30
2022-08-10T10:46:04.712Z,24.30
2022-08-10T10:48:41.568Z,24.40
2022-08-10T10:51:17.633Z,24.50
2022-08-10T10:53:53.385Z,24.50
2022-08-10T10:56:32.096Z,24.60
2022-08-10T10:59:33.318Z,24.60
2022-08-10T11:02:18.594Z,24.60
2022-08-10T11:04:59.150Z,24.60
2022-08-10T11:07:35.836Z,24.60
2022-08-10T11:10:32.414Z,24.60
2022-08-10T11:14:25.051Z,24.80
2022-08-10T11:16:09.991Z,24.60
2022-08-10T11:19:04.516Z,24.50
2022-08-10T11:21:44.156Z,24.60
2022-08-10T11:24:48.269Z,24.60
2022-08-10T11:27:31.572Z,24.50
2022-08-10T11:30:05.217Z,24.60
2022-08-10T11:32:48.402Z,24.40
2022-08-10T11:35:34.842Z,24.40
2022-08-10T11:38:31.924Z,24.30
2022-08-10T11:42:05.537Z,24.30
2022-08-10T11:44:09.512Z,24.30
2022-08-10T11:46:42.836Z,24.20
2022-08-10T11:49:14.856Z,24.20
2022-08-10T11:51:50.083Z,24.20
2022-08-10T11:54:27.056Z,24.20
2022-08-10T11:57:02.487Z,24.20
2022-08-10T11:59:57.994Z,24.20
2022-08-10T12:02:33.719Z,24.20
2022-08-10T12:05:08.054Z,24.20
2022-08-10T12:10:01.430Z,24.20
2022-08-10T12:10:33.782Z,24.10
2022-08-10T12:13:16.331Z,24.00
2022-08-10T12:15:54.735Z,24.00
2022-08-10T12:18:30.317Z,24.00
2022-08-10T12:21:03.986Z,24.10
2022-08-10T12:23:41.591Z,24.10
2022-08-10T12:26:16.041Z,24.10
2022-08-10T12:28:52.061Z,24.10
2022-08-10T12:31:27.984Z,24.10
2022-08-10T12:34:14.659Z,24.10
2022-08-10T12:36:48.187Z,24.10
2022-08-10T12:39:23.278Z,24.00
2022-08-10T12:41:57.988Z,24.00
2022-08-10T12:44:41.700Z,24.10
2022-08-10T12:47:21.415Z,24.10
2022-08-10T12:50:29.359Z,24.10
2022-08-10T12:52:53.638Z,24.10
2022-08-10T12:55:25.528Z,24.20
2022-08-10T12:57:57.378Z,24.20
2022-08-10T13:00:35.126Z,24.20
2022-08-10T13:03:07.725Z,24.20
2022-08-10T13:06:01.825Z,24.20
2022-08-10T13:08:56.200Z,24.20
2022-08-10T13:12:39.101Z,24.10
2022-08-10T13:14:24.299Z,24.10
2022-08-10T13:16:56.487Z,24.10
2022-08-10T13:19:54.489Z,24.10
2022-08-10T13:22:20.529Z,24.10
2022-08-10T13:24:55.647Z,24.20
2022-08-10T13:28:01.408Z,24.20
2022-08-10T13:30:33.427Z,24.20
2022-08-10T13:33:08.881Z,24.20
2022-08-10T13:35:38.741Z,24.20
2022-08-10T13:38:09.864Z,24.20
2022-08-10T13:40:40.777Z,24.20
2022-08-10T13:43:12.234Z,24.20
2022-08-10T13:45:47.820Z,24.20
2022-08-10T13:48:21.743Z,24.20
2022-08-10T13:50:52.769Z,24.10
2022-08-10T13:53:23.679Z,24.00
2022-08-10T13:55:57.409Z,24.00
2022-08-10T13:58:31.763Z,23.90
2022-08-10T14:01:02.842Z,23.90
2022-08-10T14:03:37.756Z,23.80
2022-08-10T14:06:08.858Z,23.80
2022-08-10T14:08:41.356Z,23.80
2022-08-10T14:11:15.716Z,23.80
2022-08-10T14:13:52.631Z,23.80
2022-08-10T14:16:22.378Z,23.80
2022-08-10T14:18:54.030Z,23.80
2022-08-10T14:21:23.463Z,23.90
2022-08-10T14:23:53.889Z,23.90
2022-08-10T14:26:27.192Z,23.80
2022-08-10T14:28:59.737Z,23.70
2022-08-10T14:31:33.827Z,23.50
2022-08-10T14:34:06.818Z,23.50
2022-08-10T14:36:43.398Z,23.50
2022-08-10T14:39:20.786Z,23.50
2022-08-10T14:42:03.854Z,23.50
2022-08-10T14:44:48.798Z,23.50
2022-08-10T14:48:03.244Z,23.50
2022-08-10T14:50:32.193Z,23.50
2022-08-10T14:53:09.665Z,23.40
2022-08-10T14:55:58.520Z,23.30
2022-08-10T14:58:34.125Z,23.30
2022-08-10T15:01:07.222Z,23.30
2022-08-10T15:03:59.160Z,23.30
2022-08-10T15:06:33.170Z,23.30
2022-08-10T15:09:05.547Z,23.30
2022-08-10T15:12:13.045Z,23.30
2022-08-10T15:14:43.118Z,23.30
2022-08-10T15:17:17.053Z,23.30
2022-08-10T15:20:02.353Z,23.20
2022-08-10T15:22:37.927Z,23.10
2022-08-10T15:25:18.661Z,23.00
2022-08-10T15:27:53.410Z,23.00
2022-08-10T15:30:31.593Z,23.00
2022-08-10T15:34:02.947Z,22.90
2022-08-10T15:36:35.057Z,23.00
2022-08-10T15:39:12.759Z,23.00
2022-08-10T15:41:58.679Z,23.00
2022-08-10T15:44:39.149Z,23.00
2022-08-10T15:47:12.311Z,23.00
2022-08-10T15:49:53.379Z,23.10
2022-08-10T15:52:39.968Z,23.10
2022-08-10T15:55:42.761Z,23.10
2022-08-10T15:58:14.077Z,23.20
2022-08-10T16:00:50.370Z,23.20
2022-08-10T16:03:27.366Z,23.20
2022-08-10T16:06:01.426Z,23.20
2022-08-10T16:08:56.667Z,23.10
2022-08-10T16:11:37.691Z,23.10
2022-08-10T16:14:15.211Z,23.10
2022-08-10T16:16:50.551Z,23.00
2022-08-10T16:19:25.158Z,23.00
2022-08-10T16:22:36.390Z,23.00
2022-08-10T16:24:58.455Z,23.00
2022-08-10T16:27:29.271Z,23.00
2022-08-10T16:30:02.426Z,23.10
2022-08-10T16:32:34.097Z,23.10
2022-08-10T16:35:09.351Z,23.10
2022-08-10T16:37:56.573Z,23.20
2022-08-10T16:40:30.390Z,23.30
2022-08-10T16:43:02.321Z,23.30
2022-08-10T16:45:35.712Z,23.30
2022-08-10T16:48:06.805Z,23.40
2022-08-10T16:50:41.922Z,23.50
2022-08-10T16:53:15.645Z,23.50
2022-08-10T16:55:50.646Z,23.50
2022-08-10T16:58:25.099Z,23.50
2022-08-10T17:00:55.313Z,23.50
2022-08-10T17:04:07.034Z,23.50
2022-08-10T17:06:23.667Z,23.50
2022-08-10T17:08:56.800Z,23.40
2022-08-10T17:11:33.627Z,23.20
2022-08-10T17:14:04.569Z,23.10
2022-08-10T17:16:39.853Z,23.00
2022-08-10T17:19:14.054Z,22.90
2022-08-10T17:21:51.345Z,22.80
2022-08-10T17:24:27.640Z,22.80
2022-08-10T17:26:59.076Z,22.70
2022-08-10T17:29:58.690Z,22.70
2022-08-10T17:32:31.394Z,22.60
2022-08-10T17:35:02.390Z,22.60
2022-08-10T17:37:37.602Z,22.60
2022-08-10T17:40:12.517Z,22.60
2022-08-10T17:42:42.285Z,22.50
2022-08-10T17:45:45.985Z,22.50
2022-08-10T17:48:09.473Z,22.50
2022-08-10T17:50:41.921Z,22.40
2022-08-10T17:53:16.781Z,22.40
2022-08-10T17:55:50.023Z,22.30
2022-08-10T17:58:21.292Z,22.30
2022-08-10T18:00:52.450Z,22.20
2022-08-10T18:03:25.473Z,22.10
2022-08-10T18:05:57.729Z,22.10
2022-08-10T18:08:29.757Z,22.00
2022-08-10T18:11:01.837Z,22.00
2022-08-10T18:13:55.363Z,21.90
2022-08-10T18:16:27.309Z,21.90
2022-08-10T18:19:00.588Z,21.90
2022-08-10T18:21:32.417Z,21.90
2022-08-10T18:24:04.976Z,21.90
2022-08-10T18:26:38.844Z,21.90
2022-08-10T18:29:10.901Z,21.90
2022-08-10T18:31:44.822Z,21.90
2022-08-10T18:34:20.957Z,21.90
2022-08-10T18:36:52.589Z,21.90
2022-08-10T18:39:25.531Z,21.90
2022-08-10T18:42:05.956Z,22.00
2022-08-10T18:44:39.088Z,22.10
2022-08-10T18:47:14.085Z,22.10
2022-08-10T18:50:00.095Z,22.20
2022-08-10T18:52:33.252Z,22.30
2022-08-10T18:55:13.934Z,22.30
2022-08-10T18:57:52.849Z,22.30
2022-08-10T19:00:23.283Z,22.40
2022-08-10T19:03:12.097Z,22.40
2022-08-10T19:05:55.410Z,22.40
2022-08-10T19:08:57.321Z,22.40
2022-08-10T19:11:44.065Z,22.30
2022-08-10T19:14:19.381Z,22.30
2022-08-10T19:17:03.433Z,22.30
2022-08-10T19:19:41.295Z,22.30
2022-08-10T19:22:18.147Z,22.20
2022-08-10T19:24:55.759Z,22.20
2022-08-10T19:27:40.433Z,22.20
2022-08-10T19:30:16.363Z,22.10
2022-08-10T19:33:00.593Z,22.10
2022-08-10T19:36:04.231Z,22.00
2022-08-10T19:38:40.907Z,22.00
2022-08-10T19:41:32.488Z,21.90
2022-08-10T19:44:22.267Z,21.90
2022-08-10T19:47:03.349Z,21.90
2022-08-10T19:49:41.631Z,21.90
2022-08-10T19:52:19.708Z,21.90
2022-08-10T19:54:57.148Z,21.80
2022-08-10T19:57:34.555Z,21.80
2022-08-10T20:00:19.249Z,21.70
2022-08-10T20:03:10.633Z,21.70
2022-08-10T20:06:12.919Z,21.70
2022-08-10T20:08:56.754Z,21.60
2022-08-10T20:11:45.057Z,21.60
2022-08-10T20:14:22.991Z,21.60
2022-08-10T20:16:56.569Z,21.60
2022-08-10T20:19:54.046Z,21.50
2022-08-10T20:22:29.303Z,21.50
2022-08-10T20:25:05.208Z,21.40
2022-08-10T20:27:59.857Z,21.40
2022-08-10T20:30:30.136Z,21.30
2022-08-10T20:33:09.037Z,21.30
2022-08-10T20:35:49.715Z,21.20
2022-08-10T20:38:25.471Z,21.20
2022-08-10T20:41:07.402Z,21.20
2022-08-10T20:43:45.735Z,21.10
2022-08-10T20:46:23.674Z,21.10
2022-08-10T20:48:59.755Z,21.10
2022-08-10T20:51:57.500Z,21.10
2022-08-10T20:54:34.387Z,21.10
2022-08-10T20:57:55.192Z,21.10
2022-08-10T21:00:13.978Z,21.00
2022-08-10T21:03:07.558Z,21.10
2022-08-10T21:05:52.721Z,21.00
2022-08-10T21:08:35.413Z,21.00
2022-08-10T21:11:12.003Z,21.00
2022-08-10T21:14:01.818Z,21.00
2022-08-10T21:16:41.388Z,20.90
2022-08-10T21:19:39.025Z,20.80
2022-08-10T21:22:12.841Z,20.80
2022-08-10T21:24:52.291Z,20.80
2022-08-10T21:27:33.466Z,20.80
2022-08-10T21:30:09.244Z,20.80
2022-08-10T21:32:56.138Z,20.70
2022-08-10T21:35:37.378Z,20.80
2022-08-10T21:38:13.224Z,20.70
2022-08-10T21:41:18.689Z,20.70
2022-08-10T21:44:18.130Z,20.70
2022-08-10T21:47:41.691Z,20.70
2022-08-10T21:50:24.742Z,20.60
2022-08-10T21:53:43.859Z,20.60
2022-08-10T21:56:42.671Z,20.50
2022-08-10T21:59:34.772Z,20.50
2022-08-10T22:02:28.218Z,20.50
2022-08-10T22:05:20.211Z,20.40
2022-08-10T22:08:12.079Z,20.40
2022-08-10T22:11:02.570Z,20.40
2022-08-10T22:13:52.880Z,20.40
2022-08-10T22:16:51.226Z,20.40
2022-08-10T22:19:38.224Z,20.30
2022-08-10T22:22:28.506Z,20.30
2022-08-10T22:25:29.628Z,20.30
2022-08-10T22:28:18.150Z,20.20
2022-08-10T22:34:33.291Z,20.20
2022-08-10T22:37:36.631Z,20.10
2022-08-10T22:40:29.202Z,20.10
2022-08-10T22:43:35.859Z,20.10
2022-08-10T22:46:31.072Z,20.00
2022-08-10T22:49:02.359Z,20.00
2022-08-10T22:51:55.361Z,19.90
2022-08-10T22:54:49.641Z,19.90
2022-08-10T22:57:42.009Z,19.80
2022-08-10T23:00:14.349Z,19.80
2022-08-10T23:02:52.000Z,19.80
2022-08-10T23:05:32.288Z,19.80
2022-08-10T23:08:09.474Z,19.70
2022-08-10T23:10:44.709Z,19.70
2022-08-10T23:13:23.542Z,19.70
2022-08-10T23:16:28.380Z,19.70
2022-08-10T23:19:09.446Z,19.70
2022-08-10T23:22:03.195Z,19.70
2022-08-10T23:24:38.823Z,19.70
2022-08-10T23:27:13.208Z,19.60
2022-08-10T23:30:10.237Z,19.60
2022-08-10T23:32:45.396Z,19.60
2022-08-10T23:36:30.925Z,19.50
2022-08-10T23:38:08.741Z,19.50
2022-08-10T23:40:38.396Z,19.50
2022-08-10T23:43:08.755Z,19.50
2022-08-10T23:45:53.639Z,19.50
2022-08-10T23:48:26.229Z,19.40
2022-08-10T23:51:01.573Z,19.40
2022-08-10T23:53:33.661Z,19.40
2022-08-10T23:56:07.521Z,19.40
2022-08-10T23:58:42.081Z,19.40
